Latest Weather Observations for Bundaberg

IDQ60801

Issued at 9:32 am EST Tuesday 17 October 2017 (issued every 30 minutes, with the page automatically refreshed every 10 minutes)

About weather observations | Map of weather stations | Latest weather observations for QLD | Other Formats
Station Details ID: 039128 Name: BUNDABERG AERO Lat: -24.91 Lon: 152.32 Height: 30.82 m
Data from the previous 72 hours. | See also: Recent months at Bundaberg
Date/Time
EST
Temp
°C
App
Temp
°C
Dew
Point
°C
Rel
Hum
%
Delta-T
°C
Wind Press
QNH
hPa
Press
MSL
hPa
Rain since
9am
mm
Dir  Spd
km/h
Gust
km/h
Spd
kts
Gust
kts
17/09:30am 22.3 19.9 20.4 89 1.2 ESE 33 50 18 27 1016.8 1016.7 0.2
17/09:26am 22.2 19.9 20.1 88 1.4 ESE 32 50 17 27 1016.8 1016.7 0.0
17/09:09am 21.7 19.9 20.3 92 0.9 ESE 30 39 16 21 1016.8 1016.7 0.0
17/09:00am 21.4 19.2 20.4 94 0.6 ESE 32 43 17 23 1016.8 1016.7 104.0
17/08:40am 21.5 18.5 19.8 90 1.1 E 35 56 19 30 1016.8 1016.7 101.2
17/08:37am 21.8 19.1 19.7 88 1.3 E 33 56 18 30 1016.7 1016.6 100.6
17/08:30am 21.9 19.9 20.0 89 1.2 ESE 30 41 16 22 1016.5 1016.4 100.4
17/08:00am 21.2 20.1 20.2 94 0.6 ESE 26 37 14 20 1016.5 1016.4 100.2
17/07:51am 21.2 20.1 20.2 94 0.6 ESE 26 37 14 20 1016.4 1016.3 100.0
17/07:36am 21.1 21.1 20.1 94 0.6 ESE 20 26 11 14 1016.2 1016.1 99.4
17/07:30am 21.0 21.1 20.0 94 0.6 ESE 19 24 10 13 1016.2 1016.1 99.0
17/07:08am 20.7 20.2 19.9 95 0.5 ESE 22 32 12 17 1015.8 1015.7 98.0
17/07:00am 20.7 20.2 20.0 96 0.4 ESE 22 30 12 16 1015.6 1015.5 97.4
17/06:40am 20.8 19.8 19.6 93 0.8 ESE 24 32 13 17 1015.1 1015.0 95.4
17/06:30am 20.7 19.3 19.7 94 0.6 ESE 26 33 14 18 1015.0 1014.9 94.0
17/06:19am 20.6 19.2 19.6 94 0.6 ESE 26 33 14 18 1014.7 1014.6 93.6
17/06:16am 20.6 19.7 19.8 95 0.5 ESE 24 32 13 17 1014.6 1014.5 93.6
17/06:05am 20.8 19.6 20.0 95 0.5 ESE 26 37 14 20 1014.6 1014.5 93.6
17/06:00am 20.8 19.2 20.0 95 0.5 ESE 28 37 15 20 1014.6 1014.5 93.2
17/05:31am 20.5 18.0 19.8 96 0.4 ESE 32 43 17 23 1014.0 1013.9 92.6
17/05:30am 20.5 18.0 19.8 96 0.4 ESE 32 43 17 23 1014.0 1013.9 92.6
17/05:00am 20.3 17.9 20.0 98 0.2 ESE 32 46 17 25 1013.7 1013.6 92.0
17/04:46am 20.3 17.9 20.0 98 0.2 ESE 32 50 17 27 1013.7 1013.6 90.6
17/04:45am 20.3 17.8 19.8 97 0.3 ESE 32 50 17 27 1013.7 1013.6 90.6
17/04:44am 20.3 17.7 19.8 97 0.3 ESE 33 50 18 27 1013.6 1013.5 90.6
17/04:31am 20.1 16.6 19.6 97 0.3 E 37 56 20 30 1013.4 1013.3 90.0
17/04:30am 20.2 16.4 19.7 97 0.3 E 39 56 21 30 1013.4 1013.3 90.0
17/04:23am 20.3 16.8 19.6 96 0.4 ESE 37 56 20 30 1013.5 1013.4 89.6
17/04:17am 20.4 17.3 19.6 95 0.5 ESE 35 46 19 25 1013.4 1013.3 89.0
17/04:09am 20.3 17.6 19.6 96 0.4 ESE 33 43 18 23 1013.3 1013.2 88.8
17/04:00am 20.0 16.8 19.5 97 0.3 ESE 35 50 19 27 1013.3 1013.2 88.8
17/03:30am 20.2 17.2 19.9 98 0.2 ESE 35 46 19 25 1013.3 1013.2 84.8
17/03:19am 20.1 17.1 19.9 99 0.1 ESE 35 46 19 25 1013.1 1013.0 83.4
17/03:10am 19.7 17.5 19.5 99 0.1 SE 30 43 16 23 1013.1 1013.0 82.6
17/03:00am 19.3 17.3 19.1 99 0.1 SE 28 39 15 21 1013.2 1013.1 82.2
17/02:30am 19.0 17.2 18.8 99 0.1 SSE 26 37 14 20 1013.5 1013.4 79.6
17/02:00am 18.9 16.7 18.7 99 0.1 SE 28 39 15 21 1014.0 1013.9 75.4
17/01:30am 18.9 16.7 18.7 99 0.1 SE 28 35 15 19 1014.5 1014.4 70.8
17/01:00am 19.1 15.3 18.9 99 0.1 SE 37 50 20 27 1014.9 1014.8 68.0
17/12:30am 19.7 15.3 19.4 98 0.2 ESE 41 52 22 28 1015.1 1015.0 62.2
17/12:00am 19.7 16.1 19.4 98 0.2 SE 37 56 20 30 1015.4 1015.3 56.6
 
Date/Time
EST
Temp
°C
App
Temp
°C
Dew
Point
°C
Rel
Hum
%
Delta-T
°C
Wind Press
QNH
hPa
Press
MSL
hPa
Rain since
9am
mm
Dir  Spd
km/h
Gust
km/h
Spd
kts
Gust
kts
16/11:56pm 19.7 16.9 19.5 99 0.1 SE 33 56 18 30 1015.5 1015.4 56.4
16/11:44pm 19.7 17.8 19.4 98 0.2 SE 28 37 15 20 1015.4 1015.3 54.4
16/11:36pm 19.7 17.3 19.2 97 0.3 SE 30 41 16 22 1015.4 1015.3 53.8
16/11:30pm 19.8 17.5 19.3 97 0.3 SE 30 43 16 23 1015.4 1015.3 53.6
16/11:00pm 20.2 17.0 19.4 95 0.5 ESE 35 48 19 26 1015.7 1015.6 51.6
16/10:56pm 20.2 17.4 19.5 96 0.4 ESE 33 54 18 29 1015.7 1015.6 51.2
16/10:36pm 20.4 17.2 19.4 94 0.6 ESE 35 57 19 31 1015.8 1015.7 49.8
16/10:30pm 20.4 17.7 19.6 95 0.5 ESE 33 41 18 22 1015.6 1015.5 49.8
16/10:25pm 20.4 17.2 19.4 94 0.6 ESE 35 46 19 25 1015.6 1015.5 49.8
16/10:07pm 20.2 17.1 19.7 97 0.3 SE 35 54 19 29 1015.7 1015.6 49.6
16/10:00pm 20.2 16.7 19.7 97 0.3 ESE 37 54 20 29 1015.8 1015.7 49.4
16/09:54pm 20.2 16.7 19.7 97 0.3 SE 37 54 20 29 1015.9 1015.8 49.2
16/09:53pm 20.2 16.7 19.7 97 0.3 SE 37 54 20 29 1015.9 1015.8 49.2
16/09:30pm 20.0 15.7 19.5 97 0.3 SE 41 54 22 29 1015.8 1015.7 48.6
16/09:24pm 20.0 16.2 19.7 98 0.2 SE 39 50 21 27 1015.7 1015.6 48.4
16/09:00pm 19.9 14.6 19.4 97 0.3 ESE 46 59 25 32 1015.4 1015.3 43.6
16/08:55pm 20.0 14.4 19.5 97 0.3 ESE 48 63 26 34 1015.3 1015.2 41.2
16/08:31pm 20.2 15.0 19.7 97 0.3 ESE 46 72 25 39 1015.0 1014.9 34.4
16/08:30pm 20.2 15.4 19.7 97 0.3 ESE 44 57 24 31 1015.0 1014.9 34.2
16/08:26pm 20.3 15.4 19.5 95 0.5 ESE 44 57 24 31 1015.2 1015.1 32.8
16/08:00pm 20.8 17.8 19.8 94 0.6 ESE 35 56 19 30 1015.2 1015.1 30.6
16/07:30pm 20.7 18.1 19.9 95 0.5 ESE 33 56 18 30 1014.6 1014.5 30.4
16/07:29pm 20.6 18.0 19.8 95 0.5 ESE 33 56 18 30 1014.6 1014.5 30.4
16/07:24pm 20.7 18.1 19.9 95 0.5 ESE 33 44 18 24 1014.5 1014.4 30.2
16/07:12pm 20.4 18.3 19.7 96 0.4 ESE 30 48 16 26 1014.5 1014.4 30.2
16/07:00pm 20.3 17.7 19.5 95 0.5 ESE 32 48 17 26 1014.6 1014.5 29.2
16/06:56pm 20.3 18.5 19.5 95 0.5 ESE 28 46 15 25 1014.6 1014.5 28.6
16/06:51pm 20.3 19.4 19.8 97 0.3 ESE 24 35 13 19 1014.6 1014.5 28.2
16/06:49pm 20.3 19.7 19.8 97 0.3 ESE 22 35 12 19 1014.6 1014.5 28.0
16/06:30pm 20.3 18.7 20.0 98 0.2 ESE 28 35 15 19 1014.4 1014.3 27.0
16/06:00pm 20.2 19.4 20.0 99 0.1 ESE 24 37 13 20 1014.2 1014.1 26.0
16/05:52pm 20.0 19.8 19.8 99 0.1 SE 20 26 11 14 1014.1 1014.0 25.4
16/05:30pm 20.1 20.2 19.9 99 0.1 SE 19 24 10 13 1013.6 1013.5 24.8
16/05:00pm 20.0 18.6 19.7 98 0.2 SSE 26 33 14 18 1013.5 1013.4 24.6
16/04:52pm 19.9 18.4 19.4 97 0.3 SSE 26 33 14 18 1013.5 1013.4 24.6
16/04:30pm 20.3 19.1 20.0 98 0.2 SE 26 33 14 18 1013.5 1013.4 23.8
16/04:20pm 20.3 18.6 19.8 97 0.3 SE 28 35 15 19 1013.4 1013.3 23.0
16/04:00pm 20.6 19.9 20.3 98 0.2 SE 24 32 13 17 1013.3 1013.2 22.0
16/03:57pm 20.6 19.8 20.1 97 0.3 SE 24 32 13 17 1013.2 1013.1 22.0
16/03:54pm 20.6 19.4 20.1 97 0.3 SE 26 32 14 17 1013.2 1013.1 22.0
16/03:30pm 20.3 19.6 19.6 96 0.4 E 22 32 12 17 1013.2 1013.1 21.8
16/03:05pm 20.4 20.0 20.1 98 0.2 ESE 22 32 12 17 1013.0 1012.9 20.6
16/03:00pm 20.5 19.0 20.2 98 0.2 ESE 28 43 15 23 1013.0 1012.9 20.4
16/02:33pm 20.6 19.0 20.1 97 0.3 ESE 28 37 15 20 1012.9 1012.8 18.0
16/02:30pm 20.6 19.0 20.1 97 0.3 ESE 28 37 15 20 1012.9 1012.8 17.8
16/02:28pm 20.6 19.0 20.1 97 0.3 SE 28 37 15 20 1012.9 1012.8 17.8
16/02:25pm 20.6 19.0 20.1 97 0.3 ESE 28 46 15 25 1012.9 1012.8 17.6
16/02:04pm 20.8 20.2 20.5 98 0.2 SE 24 32 13 17 1012.9 1012.8 16.8
16/02:00pm 20.8 20.2 20.5 98 0.2 SE 24 33 13 18 1012.9 1012.8 16.4
16/01:57pm 20.8 20.2 20.5 98 0.2 ESE 24 35 13 19 1012.9 1012.8 16.4
16/01:30pm 20.6 18.7 20.1 97 0.3 ESE 30 41 16 22 1013.0 1012.9 15.2
16/01:29pm 20.6 18.7 20.1 97 0.3 ESE 30 41 16 22 1013.0 1012.9 15.0
16/01:05pm 20.8 21.0 20.5 98 0.2 SE 20 26 11 14 1013.3 1013.2 15.0
16/01:00pm 20.9 21.1 20.6 98 0.2 SE 20 26 11 14 1013.4 1013.3 15.0
16/12:48pm 20.7 20.4 20.4 98 0.2 SE 22 30 12 16 1013.4 1013.3 14.8
16/12:41pm 20.8 20.2 20.5 98 0.2 SE 24 30 13 16 1013.6 1013.5 14.6
16/12:37pm 20.9 20.4 20.7 99 0.1 SE 24 32 13 17 1013.6 1013.5 14.6
16/12:30pm 20.8 19.8 20.5 98 0.2 SE 26 32 14 17 1013.6 1013.5 14.6
16/12:22pm 20.7 19.7 20.4 98 0.2 SE 26 35 14 19 1013.7 1013.6 14.6
16/12:20pm 20.8 19.8 20.5 98 0.2 SE 26 35 14 19 1013.8 1013.7 14.6
16/12:12pm 20.6 18.8 20.3 98 0.2 SE 30 39 16 21 1013.9 1013.8 14.6
16/12:00pm 20.5 19.4 20.2 98 0.2 SE 26 43 14 23 1013.9 1013.8 14.6
16/11:47am 20.3 19.1 20.0 98 0.2 SE 26 33 14 18 1014.3 1014.2 13.6
16/11:45am 20.3 19.5 20.0 98 0.2 SE 24 33 13 18 1014.3 1014.2 13.4
16/11:30am 20.3 18.7 20.0 98 0.2 SE 28 39 15 21 1014.4 1014.3 11.8
16/11:18am 20.6 20.2 20.1 97 0.3 SSE 22 32 12 17 1014.4 1014.3 7.2
16/11:10am 20.8 20.6 20.5 98 0.2 SSE 22 32 12 17 1014.4 1014.3 7.0
16/11:00am 20.5 20.0 20.0 97 0.3 SSE 22 33 12 18 1014.6 1014.5 7.0
16/10:30am 20.1 20.2 19.9 99 0.1 SSE 19 28 10 15 1014.9 1014.8 7.0
16/10:19am 20.2 20.1 20.0 99 0.1 SSE 20 28 11 15 1014.9 1014.8 6.8
16/10:08am 20.1 20.2 19.9 99 0.1 SSE 19 28 10 15 1014.9 1014.8 6.4
16/10:00am 20.2 20.1 20.0 99 0.1 SSE 20 26 11 14 1015.0 1014.9 6.2
16/09:43am 20.2 20.3 20.0 99 0.1 SE 19 28 10 15 1015.2 1015.1 3.4
16/09:30am 20.3 20.3 20.1 99 0.1 SE 20 24 11 13 1015.3 1015.2 2.0
16/09:24am 20.1 19.5 19.8 98 0.2 SE 22 28 12 15 1015.2 1015.1 1.6
16/09:00am 20.0 20.0 19.8 99 0.1 SE 19 26 10 14 1015.4 1015.3 41.8
16/08:50am 20.0 19.8 19.7 98 0.2 SE 20 28 11 15 1015.2 1015.1 40.6
16/08:30am 20.0 20.0 19.8 99 0.1 SE 19 22 10 12 1015.2 1015.1 39.2
16/08:18am 19.8 19.5 19.6 99 0.1 SE 20 26 11 14 1015.1 1015.0 39.0
16/08:00am 19.6 19.2 19.3 98 0.2 SE 20 28 11 15 1014.9 1014.8 38.4
16/07:51am 19.7 19.2 19.2 97 0.3 SE 20 28 11 15 1014.8 1014.7 37.0
16/07:30am 19.8 19.5 19.1 96 0.4 SSE 19 26 10 14 1014.3 1014.2 35.8
16/07:00am 19.6 18.8 19.3 98 0.2 SE 22 30 12 16 1014.2 1014.1 35.8
16/06:30am 19.3 18.4 19.0 98 0.2 SE 22 33 12 18 1014.0 1013.9 35.6
16/06:17am 19.1 18.5 18.8 98 0.2 SSE 20 30 11 16 1013.7 1013.6 34.8
16/06:05am 19.0 18.3 18.7 98 0.2 SSE 20 28 11 15 1013.6 1013.5 34.8
16/06:02am 19.0 18.3 18.7 98 0.2 SSE 20 28 11 15 1013.6 1013.5 34.6
16/06:00am 19.0 18.2 18.5 97 0.3 SSE 20 28 11 15 1013.6 1013.5 34.4
16/05:46am 18.9 18.3 18.4 97 0.3 SSE 19 24 10 13 1013.5 1013.4 33.2
16/05:42am 19.0 18.4 18.5 97 0.3 SSE 19 28 10 15 1013.5 1013.4 33.0
16/05:30am 18.9 18.4 18.6 98 0.2 SSE 19 28 10 15 1013.5 1013.4 33.0
16/05:27am 18.9 18.4 18.6 98 0.2 SSE 19 28 10 15 1013.5 1013.4 33.0
16/05:00am 18.9 17.8 18.6 98 0.2 SSE 22 30 12 16 1013.2 1013.1 31.8
16/04:30am 18.7 18.0 18.2 97 0.3 SSE 19 28 10 15 1012.7 1012.6 31.2
16/04:04am 18.7 17.7 18.0 96 0.4 SSE 20 28 11 15 1012.2 1012.1 30.0
16/04:00am 18.7 17.7 18.0 96 0.4 SSE 20 28 11 15 1012.1 1012.0 29.6
16/03:34am 18.8 17.7 17.8 94 0.6 SSE 20 33 11 18 1012.2 1012.1 27.8
16/03:30am 18.8 17.4 18.0 95 0.5 SSE 22 33 12 18 1012.2 1012.1 27.8
16/03:00am 18.6 17.6 17.9 96 0.4 SSE 20 30 11 16 1012.1 1012.0 27.6
16/02:30am 18.5 17.5 17.9 96 0.4 SSE 20 30 11 16 1012.4 1012.3 27.6
16/02:08am 18.5 17.5 18.0 97 0.3 SSE 20 32 11 17 1012.7 1012.6 27.6
16/02:00am 18.5 17.5 18.0 97 0.3 SSE 20 32 11 17 1012.6 1012.5 27.6
16/01:30am 18.6 17.8 18.1 97 0.3 S 19 26 10 14 1012.9 1012.8 26.2
16/01:14am 18.7 17.8 18.2 97 0.3 SSE 20 32 11 17 1013.2 1013.1 25.8
16/01:00am 18.6 17.6 17.9 96 0.4 SSE 20 28 11 15 1013.2 1013.1 25.6
16/12:54am 18.6 17.6 17.9 96 0.4 SSE 20 30 11 16 1013.2 1013.1 25.6
16/12:35am 18.6 17.2 17.9 96 0.4 SSE 22 32 12 17 1013.4 1013.3 25.4
16/12:30am 18.6 17.6 17.9 96 0.4 SSE 20 28 11 15 1013.4 1013.3 25.4
16/12:00am 18.7 17.7 18.0 96 0.4 SSE 20 32 11 17 1013.8 1013.7 25.4
 
Date/Time
EST
Temp
°C
App
Temp
°C
Dew
Point
°C
Rel
Hum
%
Delta-T
°C
Wind Press
QNH
hPa
Press
MSL
hPa
Rain since
9am
mm
Dir  Spd
km/h
Gust
km/h
Spd
kts
Gust
kts
15/11:53pm 18.7 17.7 18.0 96 0.4 SSE 20 32 11 17 1013.9 1013.8 25.4
15/11:30pm 18.8 18.1 18.3 97 0.3 SSE 19 26 10 14 1014.3 1014.2 25.0
15/11:29pm 18.8 18.1 18.3 97 0.3 SSE 19 26 10 14 1014.4 1014.3 24.8
15/11:10pm 18.9 18.7 18.4 97 0.3 SSE 17 24 9 13 1014.6 1014.5 24.6
15/11:00pm 18.9 18.7 18.4 97 0.3 SSE 17 24 9 13 1014.5 1014.4 24.4
15/10:54pm 18.9 18.7 18.4 97 0.3 S 17 24 9 13 1014.5 1014.4 24.4
15/10:30pm 18.8 18.5 18.3 97 0.3 S 17 22 9 12 1014.7 1014.6 24.0
15/10:15pm 18.9 18.6 18.2 96 0.4 SSE 17 26 9 14 1014.8 1014.7 23.6
15/10:00pm 18.9 18.5 18.1 95 0.5 SSE 17 26 9 14 1014.6 1014.5 23.4
15/09:39pm 18.9 18.5 18.1 95 0.5 SSE 17 24 9 13 1014.5 1014.4 23.4
15/09:30pm 18.9 18.1 18.1 95 0.5 SSE 19 32 10 17 1014.6 1014.5 23.4
15/09:23pm 18.9 18.1 18.1 95 0.5 SSE 19 28 10 15 1014.6 1014.5 23.4
15/09:00pm 18.9 18.2 18.2 96 0.4 S 19 28 10 15 1014.4 1014.3 23.4
15/08:30pm 18.9 18.7 18.4 97 0.3 SSE 17 24 9 13 1014.1 1014.0 23.4
15/08:22pm 18.9 18.7 18.4 97 0.3 SSE 17 26 9 14 1014.0 1013.9 23.4
15/08:00pm 18.8 17.9 18.1 96 0.4 SSE 20 30 11 16 1013.7 1013.6 23.4
15/07:30pm 18.9 18.3 18.4 97 0.3 SSE 19 28 10 15 1013.8 1013.7 23.0
15/07:00pm 18.9 18.2 18.2 96 0.4 SSE 19 26 10 14 1013.9 1013.8 21.8
15/06:55pm 18.9 18.6 18.2 96 0.4 SSE 17 24 9 13 1013.9 1013.8 21.6
15/06:39pm 19.0 18.3 18.3 96 0.4 SSE 19 28 10 15 1013.7 1013.6 21.0
15/06:37pm 18.9 18.2 18.2 96 0.4 SSE 19 28 10 15 1013.7 1013.6 21.0
15/06:30pm 18.9 18.6 18.2 96 0.4 SSE 17 28 9 15 1013.7 1013.6 20.6
15/06:02pm 19.3 19.1 18.6 96 0.4 SSE 17 26 9 14 1013.4 1013.3 19.0
15/06:00pm 19.4 19.3 18.7 96 0.4 SSE 17 28 9 15 1013.4 1013.3 18.8
15/05:30pm 19.9 20.9 19.4 97 0.3 SSE 13 17 7 9 1013.2 1013.1 14.8
15/05:29pm 19.8 21.1 19.3 97 0.3 SSE 11 17 6 9 1013.2 1013.1 14.6
15/05:26pm 19.8 20.6 19.1 96 0.4 SSE 13 17 7 9 1013.2 1013.1 14.2
15/05:00pm 20.1 21.2 19.6 97 0.3 SE 13 15 7 8 1013.0 1012.9 11.4
15/04:49pm 20.1 20.8 19.6 97 0.3 SE 15 20 8 11 1013.0 1012.9 10.0
15/04:39pm 20.1 20.7 19.4 96 0.4 SSE 15 20 8 11 1012.9 1012.8 8.8
15/04:30pm 20.0 20.5 19.3 96 0.4 SSE 15 20 8 11 1012.9 1012.8 8.4
15/04:02pm 20.4 21.5 19.6 95 0.5 SE 13 19 7 10 1012.8 1012.7 4.4
15/04:00pm 20.3 21.3 19.5 95 0.5 SE 13 19 7 10 1012.8 1012.7 4.2
15/03:57pm 20.3 21.3 19.5 95 0.5 SE 13 19 7 10 1012.7 1012.6 3.8
15/03:32pm 20.1 19.5 18.9 93 0.8 SSE 20 26 11 14 1012.6 1012.5 3.2
15/03:30pm 20.1 19.6 19.1 94 0.6 SSE 20 26 11 14 1012.6 1012.5 3.0
15/03:00pm 20.3 19.6 19.5 95 0.5 SSE 22 30 12 16 1012.6 1012.5 2.2
15/02:57pm 20.0 19.1 19.0 94 0.6 SE 22 30 12 16 1012.6 1012.5 2.2
15/02:41pm 20.0 19.7 19.2 95 0.5 SE 19 24 10 13 1012.6 1012.5 1.8
15/02:40pm 20.2 20.0 19.4 95 0.5 SE 19 24 10 13 1012.6 1012.5 1.8
15/02:30pm 20.0 17.9 19.0 94 0.6 SE 28 35 15 19 1012.7 1012.6 0.8
15/02:26pm 20.1 18.0 18.9 93 0.8 SE 28 37 15 20 1012.8 1012.7 0.6
15/02:11pm 20.6 20.4 19.3 92 0.8 SSE 19 32 10 17 1012.7 1012.6 0.4
15/02:00pm 20.3 19.8 19.0 92 0.8 SE 20 26 11 14 1012.8 1012.7 0.4
15/01:31pm 20.3 18.6 18.2 88 1.3 SE 24 33 13 18 1012.8 1012.7 0.2
15/01:30pm 20.1 18.3 17.9 87 1.4 SE 24 33 13 18 1012.9 1012.8 0.2
15/01:00pm 20.3 17.9 18.2 88 1.3 SE 28 39 15 21 1013.0 1012.9 0.2
15/12:32pm 21.9 20.5 18.7 82 2.0 ESE 24 32 13 17 1013.2 1013.1 0.2
15/12:30pm 21.8 20.1 18.0 79 2.4 SE 24 32 13 17 1013.2 1013.1 0.2
15/12:00pm 21.3 19.7 18.3 83 1.9 SE 24 35 13 19 1013.9 1013.8 0.2
15/11:30am 21.8 19.7 17.2 75 2.8 SSE 24 33 13 18 1014.0 1013.9 0.2
15/11:00am 24.5 24.3 18.4 69 3.9 SSE 17 24 9 13 1014.0 1013.9 0.2
15/10:30am 22.6 20.9 16.2 67 3.9 SSE 20 30 11 16 1014.4 1014.3 0.2
15/10:00am 22.9 21.4 16.7 68 3.8 SSE 20 28 11 15 1014.4 1014.3 0.2
15/09:30am 23.9 22.0 16.7 64 4.4 SE 22 30 12 16 1014.4 1014.3 0.0
15/09:00am 23.6 22.7 17.8 70 3.6 SSE 19 28 10 15 1014.4 1014.3 3.8
15/08:30am 23.0 23.0 18.1 74 3.1 SSE 15 22 8 12 1014.3 1014.2 3.8
15/08:00am 21.7 22.6 18.5 82 2.0 S 11 17 6 9 1014.2 1014.1 3.8
15/07:30am 20.9 20.4 17.7 82 2.0 S 17 20 9 11 1014.0 1013.9 3.8
15/07:00am 19.5 19.1 18.0 91 0.9 S 17 22 9 12 1013.8 1013.7 3.8
15/06:30am 18.8 19.1 18.0 95 0.5 S 13 17 7 9 1013.7 1013.6 3.8
15/06:00am 18.4 18.7 17.9 97 0.3 S 13 15 7 8 1013.5 1013.4 3.8
15/05:30am 18.0 19.2 17.4 96 0.4 SSW 7 9 4 5 1013.2 1013.1 3.8
15/05:00am 18.0 18.8 17.4 96 0.4 SSE 9 11 5 6 1012.9 1012.8 3.8
15/04:57am 18.0 18.8 17.4 96 0.4 SSE 9 11 5 6 1012.9 1012.8 3.8
15/04:30am 18.1 18.9 17.3 95 0.5 SSE 9 11 5 6 1012.9 1012.8 3.8
15/04:00am 18.1 18.1 17.3 95 0.5 SE 13 15 7 8 1012.8 1012.7 3.8
15/03:55am 18.1 18.1 17.3 95 0.5 SE 13 17 7 9 1012.7 1012.6 3.8
15/03:30am 18.2 17.8 17.2 94 0.6 SE 15 19 8 10 1012.7 1012.6 3.8
15/03:12am 18.3 18.0 17.3 94 0.6 SSE 15 22 8 12 1012.8 1012.7 3.8
15/03:00am 18.2 17.9 17.4 95 0.5 SSE 15 20 8 11 1012.9 1012.8 3.8
15/02:30am 18.3 17.8 17.7 96 0.4 SSE 17 22 9 12 1013.0 1012.9 3.8
15/02:00am 18.2 18.4 17.7 97 0.3 SSE 13 19 7 10 1013.2 1013.1 3.8
15/01:41am 18.1 18.4 17.8 98 0.2 SSE 13 19 7 10 1013.3 1013.2 3.8
15/01:30am 18.1 18.7 17.8 98 0.2 SSE 11 15 6 8 1013.5 1013.4 3.8
15/01:26am 18.1 19.1 17.8 98 0.2 SSE 9 15 5 8 1013.5 1013.4 3.8
15/01:00am 18.0 18.2 17.7 98 0.2 SSE 13 17 7 9 1013.9 1013.8 3.8
15/12:42am 17.9 18.1 17.6 98 0.2 SSE 13 17 7 9 1014.2 1014.1 3.4
15/12:30am 17.9 18.5 17.6 98 0.2 S 11 17 6 9 1014.2 1014.1 3.4
15/12:16am 17.7 17.7 17.2 97 0.3 SSE 13 19 7 10 1014.4 1014.3 3.4
15/12:00am 17.7 18.4 17.1 96 0.4 S 9 13 5 7 1014.4 1014.3 3.4
 
Date/Time
EST
Temp
°C
App
Temp
°C
Dew
Point
°C
Rel
Hum
%
Delta-T
°C
Wind Press
QNH
hPa
Press
MSL
hPa
Rain since
9am
mm
Dir  Spd
km/h
Gust
km/h
Spd
kts
Gust
kts
14/11:30pm 17.7 17.9 16.7 94 0.6 S 11 15 6 8 1014.3 1014.2 3.4
14/11:00pm 18.1 18.4 17.0 93 0.7 S 11 17 6 9 1014.6 1014.5 3.4
14/10:30pm 18.4 18.7 17.1 92 0.8 S 11 15 6 8 1015.0 1014.9 3.4
14/10:00pm 18.5 18.8 17.0 91 0.9 S 11 17 6 9 1015.0 1014.9 3.4
14/09:44pm 18.6 18.5 16.9 90 1.0 SSE 13 17 7 9 1015.0 1014.9 3.4
14/09:31pm 18.7 17.7 16.7 88 1.2 SSE 17 24 9 13 1015.0 1014.9 3.4
14/09:30pm 18.8 17.9 16.8 88 1.2 SSE 17 24 9 13 1015.0 1014.9 3.4
14/09:00pm 19.6 21.3 18.4 93 0.7 S 7 9 4 5 1014.9 1014.8 3.4
14/08:30pm 19.6 21.3 18.6 94 0.6 S 7 9 4 5 1014.5 1014.4 3.4
14/08:00pm 19.6 21.3 18.6 94 0.6 SSW 7 9 4 5 1014.3 1014.2 3.4
14/07:30pm 19.7 22.3 18.5 93 0.7 WSW 2 7 1 4 1014.0 1013.9 3.4
14/07:00pm 20.0 22.9 18.1 89 1.2 CALM 0 0 0 0 1014.1 1014.0 3.4
14/06:30pm 20.4 23.4 18.5 89 1.2 CALM 0 0 0 0 1013.9 1013.8 3.4
14/06:00pm 20.6 21.9 18.4 87 1.4 ESE 9 11 5 6 1013.7 1013.6 3.4
14/05:30pm 21.1 23.0 18.5 85 1.6 ESE 6 9 3 5 1013.4 1013.3 3.4
14/05:00pm 21.1 21.4 17.9 82 2.0 NE 13 17 7 9 1012.9 1012.8 3.4
14/04:30pm 21.0 22.1 18.9 88 1.3 NE 11 13 6 7 1012.9 1012.8 3.4
14/04:00pm 20.6 21.4 18.2 86 1.5 ENE 11 17 6 9 1012.6 1012.5 3.2
14/03:58pm 20.8 22.2 18.6 87 1.4 ENE 9 17 5 9 1012.6 1012.5 3.2
14/03:30pm 21.2 22.7 18.8 86 1.5 ESE 9 11 5 6 1012.7 1012.6 3.2
14/03:00pm 21.3 23.2 18.9 86 1.5 ENE 7 9 4 5 1012.6 1012.5 3.2
14/02:50pm 21.2 22.6 18.6 85 1.6 ENE 9 11 5 6 1012.7 1012.6 3.2
14/02:30pm 21.2 22.3 18.9 87 1.4 NE 11 15 6 8 1012.9 1012.8 3.2
14/02:05pm 21.1 22.8 19.4 90 1.1 NE 9 15 5 8 1013.0 1012.9 3.2
14/02:00pm 21.0 22.7 19.3 90 1.1 ENE 9 13 5 7 1013.1 1013.0 3.2
14/01:58pm 21.1 22.9 19.6 91 1.0 ENE 9 13 5 7 1013.1 1013.0 3.2
14/01:44pm 20.7 22.2 18.8 89 1.2 NE 9 13 5 7 1013.4 1013.3 3.2
14/01:30pm 20.8 22.5 19.3 91 0.9 NE 9 13 5 7 1013.4 1013.3 3.2
14/01:27pm 20.6 22.2 19.1 91 0.9 NE 9 13 5 7 1013.4 1013.3 3.2
14/01:00pm 20.4 20.7 18.7 90 1.1 ENE 15 19 8 10 1013.6 1013.5 3.2
14/12:30pm 21.1 23.9 19.6 91 1.0 NE 4 9 2 5 1014.0 1013.9 3.0
14/12:00pm 20.9 23.7 19.6 92 0.8 E 4 9 2 5 1014.4 1014.3 2.8
14/11:30am 20.7 23.1 19.7 94 0.6 SE 6 9 3 5 1014.7 1014.6 2.2
14/11:00am 20.6 22.8 19.6 94 0.6 SSE 7 9 4 5 1015.0 1014.9 1.6
14/10:43am 20.3 22.3 19.1 93 0.8 SSW 7 11 4 6 1015.2 1015.1 1.6
14/10:30am 20.1 21.9 18.8 92 0.8 S 7 9 4 5 1015.3 1015.2 1.4
14/10:21am 20.1 22.0 18.9 93 0.8 S 7 11 4 6 1015.4 1015.3 1.2
14/10:00am 20.2 21.7 19.0 93 0.8 SSW 9 11 5 6 1015.5 1015.4 0.8
14/09:44am 19.9 21.2 18.4 91 0.9 SSW 9 13 5 7 1015.6 1015.5 0.4

Other Formats:

Comma delimited format used in spreadsheet applications
http://www.bom.gov.au/fwo/IDQ60801/IDQ60801.94387.axf

JavaScript Object Notation format (JSON) in row-major order
http://www.bom.gov.au/fwo/IDQ60801/IDQ60801.94387.json